createdAt,value
2023-02-23T00:01:32.097Z,95959.44
2023-02-23T00:04:05.495Z,95962.44
2023-02-23T00:06:39.004Z,95966.25
2023-02-23T00:09:22.887Z,95960.44
2023-02-23T00:11:57.870Z,95965.03
2023-02-23T00:14:31.262Z,95962.34
2023-02-23T00:17:11.041Z,95956.66
2023-02-23T00:19:44.399Z,95951.63
2023-02-23T00:22:17.403Z,95952.75
2023-02-23T00:24:50.285Z,95958.44
2023-02-23T00:27:23.187Z,95961.50
2023-02-23T00:29:56.509Z,95964.94
2023-02-23T00:32:31.027Z,95954.22
2023-02-23T00:35:04.003Z,95957.25
2023-02-23T00:37:37.673Z,95958.81
2023-02-23T00:40:14.715Z,95951.56
2023-02-23T00:42:49.597Z,95952.34
2023-02-23T00:45:22.523Z,95955.00
2023-02-23T00:47:57.025Z,95956.53
2023-02-23T00:50:30.109Z,95958.44
2023-02-23T00:53:03.025Z,95950.84
2023-02-23T00:55:35.859Z,95947.38
2023-02-23T00:58:09.804Z,95943.59
2023-02-23T01:00:43.328Z,95947.06
2023-02-23T01:03:17.673Z,95945.16
2023-02-23T01:05:51.125Z,95943.25
2023-02-23T01:08:24.535Z,95940.56
2023-02-23T01:10:57.599Z,95947.81
2023-02-23T01:13:30.616Z,95937.13
2023-02-23T01:16:07.078Z,95934.44
2023-02-23T01:18:42.989Z,95940.22
2023-02-23T01:21:17.457Z,95937.88
2023-02-23T01:23:50.970Z,95938.22
2023-02-23T01:26:25.232Z,95937.44
2023-02-23T01:29:00.735Z,95923.63
2023-02-23T01:31:33.836Z,95927.44
2023-02-23T01:34:09.178Z,95922.50
2023-02-23T01:36:44.671Z,95934.00
2023-02-23T01:39:19.991Z,95930.13
2023-02-23T01:41:54.232Z,95926.66
2023-02-23T01:45:04.254Z,95922.88
2023-02-23T01:47:37.158Z,95925.09
2023-02-23T01:50:12.522Z,95917.84
2023-02-23T01:52:46.959Z,95923.53
2023-02-23T01:55:24.342Z,95916.63
2023-02-23T01:58:05.384Z,95921.66
2023-02-23T02:00:38.873Z,95920.44
2023-02-23T02:03:16.835Z,95917.75
2023-02-23T02:05:52.409Z,95927.69
2023-02-23T02:08:27.055Z,95921.53
2023-02-23T02:10:59.977Z,95925.72
2023-02-23T02:13:36.648Z,95917.69
2023-02-23T02:16:31.440Z,95916.53
2023-02-23T02:19:33.728Z,95920.44
2023-02-23T02:22:38.255Z,95916.97
2023-02-23T02:25:35.298Z,95911.94
2023-02-23T02:28:43.261Z,95909.28
2023-02-23T02:31:51.565Z,95914.28
2023-02-23T02:34:50.597Z,95910.38
2023-02-23T02:37:44.953Z,95905.41
2023-02-23T02:40:27.599Z,95904.63
2023-02-23T02:43:11.945Z,95902.28
2023-02-23T02:45:52.660Z,95900.72
2023-02-23T02:48:35.490Z,95897.59
2023-02-23T02:51:18.354Z,95900.63
2023-02-23T02:54:06.835Z,95904.44
2023-02-23T02:56:42.690Z,95902.44
2023-02-23T02:59:35.576Z,95908.59
2023-02-23T03:02:33.273Z,95899.34
2023-02-23T03:05:32.616Z,95895.53
2023-02-23T03:08:32.786Z,95890.84
2023-02-23T03:11:26.292Z,95889.31
2023-02-23T03:14:33.639Z,95895.81
2023-02-23T03:17:33.193Z,95898.81
2023-02-23T03:20:34.597Z,95896.47
2023-02-23T03:23:33.095Z,95888.34
2023-02-23T03:26:31.279Z,95895.25
2023-02-23T03:29:27.902Z,95893.28
2023-02-23T03:32:29.247Z,95892.50
2023-02-23T03:35:26.514Z,95896.66
2023-02-23T03:38:22.947Z,95902.00
2023-02-23T03:41:14.781Z,95898.09
2023-02-23T03:44:12.220Z,95896.97
2023-02-23T03:47:06.412Z,95893.88
2023-02-23T03:49:59.116Z,95900.78
2023-02-23T03:52:55.122Z,95894.97
2023-02-23T03:55:50.301Z,95891.63
2023-02-23T03:58:47.764Z,95882.47
2023-02-23T04:01:40.711Z,95897.09
2023-02-23T04:04:31.416Z,95902.78
2023-02-23T04:07:23.090Z,95897.88
2023-02-23T04:10:14.066Z,95894.06
2023-02-23T04:13:14.855Z,95892.16
2023-02-23T04:15:52.103Z,95885.66
2023-02-23T04:18:29.740Z,95899.84
2023-02-23T04:21:03.570Z,95896.75
2023-02-23T04:23:40.724Z,95898.66
2023-02-23T04:26:13.643Z,95898.66
2023-02-23T04:28:46.757Z,95898.97
2023-02-23T04:31:21.616Z,95896.31
2023-02-23T04:33:57.800Z,95896.19
2023-02-23T04:36:30.765Z,95895.75
2023-02-23T04:39:03.713Z,95895.69
2023-02-23T04:41:36.769Z,95889.09
2023-02-23T04:44:09.842Z,95900.94
2023-02-23T04:46:42.867Z,95900.16
2023-02-23T04:49:17.272Z,95905.09
2023-02-23T04:51:50.155Z,95906.09
2023-02-23T04:54:23.036Z,95904.53
2023-02-23T04:56:55.895Z,95904.88
2023-02-23T04:59:28.851Z,95909.47
2023-02-23T05:02:01.881Z,95895.22
2023-02-23T05:04:36.401Z,95895.22
2023-02-23T05:07:09.544Z,95893.66
2023-02-23T05:09:42.463Z,95888.66
2023-02-23T05:12:15.577Z,95895.22
2023-02-23T05:14:48.438Z,95897.13
2023-02-23T05:17:21.465Z,95897.91
2023-02-23T05:19:56.274Z,95894.88
2023-02-23T05:22:29.158Z,95895.66
2023-02-23T05:25:02.226Z,95898.69
2023-02-23T05:27:35.573Z,95894.09
2023-02-23T05:30:10.358Z,95901.00
2023-02-23T05:32:43.355Z,95897.56
2023-02-23T05:35:18.003Z,95900.66
2023-02-23T05:37:50.911Z,95896.44
2023-02-23T05:40:23.846Z,95895.28
2023-02-23T05:43:00.547Z,95895.75
2023-02-23T05:45:34.367Z,95894.19
2023-02-23T05:48:07.797Z,95897.31
2023-02-23T05:50:42.314Z,95900.41
2023-02-23T05:53:15.254Z,95898.84
2023-02-23T05:55:48.189Z,95896.97
2023-02-23T05:58:21.170Z,95895.84
2023-02-23T06:00:54.107Z,95892.06
2023-02-23T06:03:27.193Z,95897.06
2023-02-23T06:06:01.455Z,95901.28
2023-02-23T06:08:34.764Z,95897.06
2023-02-23T06:11:07.891Z,95896.69
2023-02-23T06:13:41.281Z,95905.84
2023-02-23T06:16:14.234Z,95905.84
2023-02-23T06:18:47.278Z,95898.97
2023-02-23T06:21:21.886Z,95903.16
2023-02-23T06:23:54.931Z,95904.31
2023-02-23T06:26:27.877Z,95898.19
2023-02-23T06:29:00.842Z,95915.03
2023-02-23T06:31:33.859Z,95907.34
2023-02-23T06:34:06.904Z,95906.56
2023-02-23T06:36:41.226Z,95920.38
2023-02-23T06:39:14.185Z,95907.34
2023-02-23T06:41:47.141Z,95909.22
2023-02-23T06:44:20.064Z,95915.38
2023-02-23T06:46:53.546Z,95908.13
2023-02-23T06:49:26.551Z,95915.38
2023-02-23T06:52:00.942Z,95914.25
2023-02-23T06:54:35.257Z,95917.69
2023-02-23T06:57:08.259Z,95920.00
2023-02-23T06:59:41.366Z,95918.91
2023-02-23T07:02:15.016Z,95918.56
2023-02-23T07:04:48.142Z,95921.69
2023-02-23T07:07:22.679Z,95933.63
2023-02-23T07:09:55.716Z,95923.69
2023-02-23T07:12:28.711Z,95941.38
2023-02-23T07:15:01.710Z,95926.09
2023-02-23T07:17:34.774Z,95935.34
2023-02-23T07:20:08.454Z,95942.69
2023-02-23T07:22:42.824Z,95949.69
2023-02-23T07:25:15.875Z,95941.31
2023-02-23T07:27:48.792Z,95944.09
2023-02-23T07:30:24.677Z,95946.41
2023-02-23T07:32:57.584Z,95934.25
2023-02-23T07:35:30.472Z,95936.22
2023-02-23T07:38:07.528Z,95939.78
2023-02-23T07:40:40.568Z,95949.03
2023-02-23T07:43:13.470Z,95946.44
2023-02-23T07:45:46.894Z,95948.09
2023-02-23T07:48:20.102Z,95950.06
2023-02-23T07:50:53.198Z,95949.38
2023-02-23T07:53:28.377Z,95954.47
2023-02-23T07:56:03.714Z,95953.81
2023-02-23T07:58:36.669Z,95954.69
2023-02-23T08:01:10.986Z,95959.75
2023-02-23T08:03:49.582Z,95964.88
2023-02-23T08:06:22.656Z,95957.72
2023-02-23T08:08:56.887Z,95963.25
2023-02-23T08:11:29.810Z,95960.31
2023-02-23T08:14:02.760Z,95955.03
2023-02-23T08:16:35.773Z,95955.19
2023-02-23T08:19:08.761Z,95954.94
2023-02-23T08:21:43.387Z,95955.09
2023-02-23T08:24:17.901Z,95959.03
2023-02-23T08:26:51.219Z,95953.44
2023-02-23T08:29:24.675Z,95963.53
2023-02-23T08:31:57.736Z,95959.44
2023-02-23T08:34:30.982Z,95962.63
2023-02-23T08:37:03.871Z,95958.22
2023-02-23T08:39:39.216Z,95968.66
2023-02-23T08:42:12.246Z,95964.16
2023-02-23T08:44:45.148Z,95967.75
2023-02-23T08:47:22.176Z,95973.69
2023-02-23T08:49:55.508Z,95973.53
2023-02-23T08:52:29.042Z,95966.59
2023-02-23T08:55:03.418Z,95963.81
2023-02-23T08:57:39.877Z,95964.41
2023-02-23T09:00:16.717Z,95969.34
2023-02-23T09:02:49.937Z,95969.94
2023-02-23T09:05:22.872Z,95968.69
2023-02-23T09:07:55.990Z,95965.81
2023-02-23T09:10:30.338Z,95967.94
2023-02-23T09:13:03.532Z,95974.31
2023-02-23T09:15:36.541Z,95975.19
2023-02-23T09:18:14.025Z,95969.59
2023-02-23T09:20:47.097Z,95970.09
2023-02-23T09:23:20.113Z,95973.31
2023-02-23T09:25:54.683Z,95970.75
2023-02-23T09:28:31.146Z,95975.09
2023-02-23T09:31:07.559Z,95971.41
2023-02-23T09:33:40.927Z,95980.72
2023-02-23T09:36:16.300Z,95983.13
2023-02-23T09:38:52.484Z,95969.31
2023-02-23T09:41:51.667Z,95968.66
2023-02-23T09:44:38.197Z,95973.63
2023-02-23T09:47:22.775Z,95973.63
2023-02-23T09:49:56.714Z,95969.78
2023-02-23T09:52:38.174Z,95973.63
2023-02-23T09:55:11.725Z,95967.41
2023-02-23T09:57:48.602Z,95967.41
2023-02-23T10:00:28.190Z,95976.22
2023-02-23T10:03:18.030Z,95971.56
2023-02-23T10:05:57.578Z,95973.44
2023-02-23T10:08:44.161Z,95968.38
2023-02-23T10:11:26.350Z,95973.72
2023-02-23T10:14:17.227Z,95970.56
2023-02-23T10:17:04.818Z,95969.78
2023-02-23T10:19:46.089Z,95965.09
2023-02-23T10:22:21.490Z,95962.78
2023-02-23T10:24:59.983Z,95959.28
2023-02-23T10:27:39.476Z,95958.94
2023-02-23T10:30:22.407Z,95952.84
2023-02-23T10:33:02.464Z,95953.63
2023-02-23T10:35:35.704Z,95959.44
2023-02-23T10:38:15.181Z,95956.41
2023-02-23T10:40:52.229Z,95951.06
2023-02-23T10:43:25.147Z,95949.19
2023-02-23T10:46:00.197Z,95949.66
2023-02-23T10:48:38.824Z,95934.69
2023-02-23T10:51:19.852Z,95938.91
2023-02-23T10:53:53.292Z,95930.44
2023-02-23T10:56:26.570Z,95933.50
2023-02-23T10:59:00.485Z,95928.91
2023-02-23T11:02:02.381Z,95924.28
2023-02-23T11:04:36.144Z,95924.28
2023-02-23T11:07:16.450Z,95923.56
2023-02-23T11:09:51.396Z,95916.25
2023-02-23T11:12:28.501Z,95916.66
2023-02-23T11:15:35.964Z,95920.94
2023-02-23T11:18:24.536Z,95921.34
2023-02-23T11:20:58.163Z,95908.28
2023-02-23T11:23:35.647Z,95907.97
2023-02-23T11:26:23.344Z,95902.63
2023-02-23T11:28:59.538Z,95894.63
2023-02-23T11:31:35.443Z,95903.94
2023-02-23T11:34:23.049Z,95895.19
2023-02-23T11:37:05.402Z,95896.78
2023-02-23T11:39:39.396Z,95893.38
2023-02-23T11:42:19.328Z,95888.81
2023-02-23T11:44:54.005Z,95881.56
2023-02-23T11:47:26.950Z,95877.34
2023-02-23T11:50:01.534Z,95870.47
2023-02-23T11:52:36.487Z,95874.78
2023-02-23T11:55:20.072Z,95866.75
2023-02-23T11:57:56.784Z,95859.09
2023-02-23T12:00:30.293Z,95863.41
2023-02-23T12:03:05.617Z,95866.53
2023-02-23T12:05:40.134Z,95867.34
2023-02-23T12:08:17.273Z,95861.59
2023-02-23T12:10:55.396Z,95862.78
2023-02-23T12:13:33.778Z,95853.19
2023-02-23T12:16:15.678Z,95856.31
2023-02-23T12:18:55.090Z,95854.78
2023-02-23T12:21:37.081Z,95857.50
2023-02-23T12:24:20.569Z,95850.91
2023-02-23T12:27:01.391Z,95851.69
2023-02-23T12:29:48.925Z,95853.63
2023-02-23T12:32:26.257Z,95841.66
2023-02-23T12:35:03.681Z,95847.06
2023-02-23T12:37:43.239Z,95842.41
2023-02-23T12:40:19.161Z,95838.94
2023-02-23T12:43:00.845Z,95837.78
2023-02-23T12:45:39.541Z,95831.22
2023-02-23T12:48:24.956Z,95842.75
2023-02-23T12:51:01.774Z,95834.25
2023-02-23T12:53:41.085Z,95838.50
2023-02-23T12:56:35.848Z,95831.91
2023-02-23T12:59:22.005Z,95824.56
2023-02-23T13:01:58.605Z,95819.50
2023-02-23T13:04:44.233Z,95829.53
2023-02-23T13:07:22.512Z,95827.56
2023-02-23T13:10:07.022Z,95825.19
2023-02-23T13:12:49.921Z,95820.53
2023-02-23T13:15:31.177Z,95822.41
2023-02-23T13:18:14.507Z,95821.56
2023-02-23T13:20:51.774Z,95820.75
2023-02-23T13:23:32.923Z,95825.38
2023-02-23T13:26:16.329Z,95824.56
2023-02-23T13:28:56.612Z,95820.72
2023-02-23T13:31:33.692Z,95819.91
2023-02-23T13:34:10.885Z,95826.03
2023-02-23T13:36:45.967Z,95814.06
2023-02-23T13:39:40.698Z,95813.28
2023-02-23T13:42:28.175Z,95816.31
2023-02-23T13:45:18.066Z,95813.22
2023-02-23T13:47:57.004Z,95811.25
2023-02-23T13:50:37.914Z,95813.13
2023-02-23T13:53:34.081Z,95807.34
2023-02-23T13:56:10.069Z,95810.34
2023-02-23T13:58:52.659Z,95808.44
2023-02-23T14:01:31.687Z,95798.75
2023-02-23T14:04:12.889Z,95799.13
2023-02-23T14:06:57.158Z,95799.84
2023-02-23T14:09:32.632Z,95795.59
2023-02-23T14:12:19.145Z,95801.34
2023-02-23T14:14:53.466Z,95802.09
2023-02-23T14:17:57.016Z,95803.22
2023-02-23T14:20:56.245Z,95805.91
2023-02-23T14:23:36.967Z,95798.97
2023-02-23T14:26:39.049Z,95800.94
2023-02-23T14:29:26.749Z,95790.16
2023-02-23T14:32:32.486Z,95790.97
2023-02-23T14:35:05.902Z,95792.91
2023-02-23T14:37:42.102Z,95786.72
2023-02-23T14:40:18.424Z,95790.16
2023-02-23T14:42:53.787Z,95788.97
2023-02-23T14:45:28.961Z,95787.78
2023-02-23T14:48:09.881Z,95785.84
2023-02-23T14:50:43.278Z,95788.13
2023-02-23T14:53:20.848Z,95787.72
2023-02-23T14:55:54.215Z,95785.78
2023-02-23T14:58:29.603Z,95786.50
2023-02-23T15:01:02.571Z,95776.47
2023-02-23T15:03:37.137Z,95781.09
2023-02-23T15:06:11.966Z,95778.00
2023-02-23T15:08:46.578Z,95776.81
2023-02-23T15:11:22.480Z,95777.56
2023-02-23T15:13:55.861Z,95776.41
2023-02-23T15:16:32.057Z,95773.66
2023-02-23T15:19:07.854Z,95778.63
2023-02-23T15:21:41.020Z,95772.81
2023-02-23T15:24:16.643Z,95775.50
2023-02-23T15:26:50.038Z,95783.16
2023-02-23T15:29:24.991Z,95768.88
2023-02-23T15:31:58.469Z,95774.25
2023-02-23T15:34:32.989Z,95775.38
2023-02-23T15:37:12.903Z,95776.88
2023-02-23T15:39:53.270Z,95774.94
2023-02-23T15:42:33.756Z,95775.28
2023-02-23T15:45:17.674Z,95785.31
2023-02-23T15:47:55.467Z,95779.50
2023-02-23T15:50:37.325Z,95777.13
2023-02-23T15:53:21.489Z,95779.03
2023-02-23T15:56:00.829Z,95782.81
2023-02-23T15:58:51.011Z,95774.31
2023-02-23T16:01:30.313Z,95773.88
2023-02-23T16:04:07.475Z,95777.66
2023-02-23T16:06:51.865Z,95770.72
2023-02-23T16:09:30.212Z,95770.28
2023-02-23T16:12:05.396Z,95767.91
2023-02-23T16:14:45.926Z,95767.91
2023-02-23T16:17:27.142Z,95770.19
2023-02-23T16:20:14.948Z,95760.91
2023-02-23T16:22:54.833Z,95770.47
2023-02-23T16:25:29.901Z,95766.22
2023-02-23T16:28:06.050Z,95770.81
2023-02-23T16:30:44.220Z,95760.34
2023-02-23T16:33:22.998Z,95766.06
2023-02-23T16:36:13.983Z,95770.63
2023-02-23T16:39:08.245Z,95773.97
2023-02-23T16:41:41.201Z,95776.94
2023-02-23T16:44:21.727Z,95777.28
2023-02-23T16:47:12.697Z,95778.31
2023-02-23T16:49:45.659Z,95768.59
2023-02-23T16:52:20.766Z,95778.47
2023-02-23T16:54:56.162Z,95772.97
2023-02-23T16:57:31.843Z,95772.06
2023-02-23T17:00:14.611Z,95780.72
2023-02-23T17:02:47.644Z,95778.59
2023-02-23T17:05:23.747Z,95787.59
2023-02-23T17:07:58.275Z,95785.81
2023-02-23T17:10:35.878Z,95783.72
2023-02-23T17:13:14.392Z,95783.47
2023-02-23T17:15:51.638Z,95781.72
2023-02-23T17:18:26.694Z,95785.69
2023-02-23T17:21:02.487Z,95794.31
2023-02-23T17:23:42.724Z,95794.03
2023-02-23T17:26:17.518Z,95796.84
2023-02-23T17:28:50.699Z,95789.28
2023-02-23T17:31:26.569Z,95795.16
2023-02-23T17:34:00.395Z,95801.41
2023-02-23T17:36:33.344Z,95813.09
2023-02-23T17:39:08.399Z,95801.72
2023-02-23T17:41:43.291Z,95816.81
2023-02-23T17:44:16.226Z,95807.00
2023-02-23T17:46:49.111Z,95806.03
2023-02-23T17:49:22.036Z,95816.94
2023-02-23T17:51:54.911Z,95816.31
2023-02-23T17:54:29.170Z,95820.28
2023-02-23T17:57:03.686Z,95820.88
2023-02-23T17:59:37.031Z,95828.28
2023-02-23T18:02:14.338Z,95819.63
2023-02-23T18:04:47.812Z,95820.56
2023-02-23T18:07:21.874Z,95828.41
2023-02-23T18:09:55.097Z,95821.66
2023-02-23T18:12:30.959Z,95830.97
2023-02-23T18:15:03.864Z,95826.22
2023-02-23T18:17:37.180Z,95829.03
2023-02-23T18:20:15.356Z,95837.63
2023-02-23T18:22:48.323Z,95839.00
2023-02-23T18:25:24.276Z,95843.34
2023-02-23T18:27:59.197Z,95853.50
2023-02-23T18:30:32.180Z,95849.84
2023-02-23T18:33:06.876Z,95851.97
2023-02-23T18:35:42.384Z,95845.59
2023-02-23T18:38:16.171Z,95862.66
2023-02-23T18:40:49.132Z,95859.75
2023-02-23T18:43:23.389Z,95849.66
2023-02-23T18:45:56.330Z,95853.97
2023-02-23T18:48:29.573Z,95856.88
2023-02-23T18:51:05.584Z,95859.00
2023-02-23T18:53:38.861Z,95853.44
2023-02-23T18:56:14.716Z,95857.06
2023-02-23T18:58:48.992Z,95861.88
2023-02-23T19:01:25.088Z,95850.97
2023-02-23T19:04:00.172Z,95851.94
2023-02-23T19:06:34.685Z,95855.16
2023-02-23T19:09:12.325Z,95853.91
2023-02-23T19:11:45.331Z,95852.25
2023-02-23T19:14:32.899Z,95856.69
2023-02-23T19:17:14.408Z,95850.78
2023-02-23T19:19:47.245Z,95850.63
2023-02-23T19:22:20.249Z,95853.63
2023-02-23T19:24:53.322Z,95857.41
2023-02-23T19:27:26.429Z,95862.72
2023-02-23T19:30:00.751Z,95855.50
2023-02-23T19:32:33.839Z,95852.06
2023-02-23T19:35:10.627Z,95858.63
2023-02-23T19:37:48.739Z,95859.91
2023-02-23T19:40:24.122Z,95855.63
2023-02-23T19:42:57.051Z,95856.41
2023-02-23T19:45:31.380Z,95860.69
2023-02-23T19:48:04.883Z,95860.97
2023-02-23T19:50:37.936Z,95857.84
2023-02-23T19:53:10.964Z,95860.06
2023-02-23T19:55:45.143Z,95865.41
2023-02-23T19:58:18.387Z,95859.19
2023-02-23T20:00:52.931Z,95856.50
2023-02-23T20:03:28.682Z,95859.81
2023-02-23T20:06:05.881Z,95863.59
2023-02-23T20:08:38.825Z,95865.06
2023-02-23T20:11:11.908Z,95869.94
2023-02-23T20:13:44.832Z,95871.03
2023-02-23T20:16:19.467Z,95867.13
2023-02-23T20:18:52.806Z,95867.81
2023-02-23T20:21:27.260Z,95862.31
2023-02-23T20:24:01.628Z,95864.09
2023-02-23T20:26:37.079Z,95860.53
2023-02-23T20:29:12.890Z,95867.59
2023-02-23T20:31:51.536Z,95870.63
2023-02-23T20:34:25.468Z,95871.13
2023-02-23T20:36:58.443Z,95866.78
2023-02-23T20:39:31.412Z,95865.06
2023-02-23T20:42:05.114Z,95864.19
2023-02-23T20:44:38.276Z,95868.59
2023-02-23T20:47:12.612Z,95868.94
2023-02-23T20:49:45.673Z,95864.88
2023-02-23T20:52:18.556Z,95864.00
2023-02-23T20:54:51.431Z,95865.09
2023-02-23T20:57:25.055Z,95866.84
2023-02-23T20:59:58.771Z,95870.59
2023-02-23T21:02:33.073Z,95870.47
2023-02-23T21:05:10.173Z,95864.22
2023-02-23T21:07:43.092Z,95866.09
2023-02-23T21:10:16.340Z,95877.44
2023-02-23T21:12:49.211Z,95876.19
2023-02-23T21:15:22.151Z,95876.81
2023-02-23T21:17:56.861Z,95876.38
2023-02-23T21:20:29.963Z,95877.81
2023-02-23T21:23:04.244Z,95873.09
2023-02-23T21:25:38.550Z,95873.78
2023-02-23T21:28:11.598Z,95872.84
2023-02-23T21:30:44.507Z,95871.94
2023-02-23T21:33:18.863Z,95872.56
2023-02-23T21:35:55.193Z,95874.78
2023-02-23T21:38:29.320Z,95874.97
2023-02-23T21:41:02.224Z,95873.72
2023-02-23T21:43:35.914Z,95866.72
2023-02-23T21:46:09.894Z,95879.53
2023-02-23T21:48:44.889Z,95870.63
2023-02-23T21:51:18.263Z,95868.16
2023-02-23T21:53:51.807Z,95867.22
2023-02-23T21:56:24.724Z,95866.00
2023-02-23T21:58:58.497Z,95858.97
2023-02-23T22:01:34.742Z,95860.72
2023-02-23T22:04:12.344Z,95853.06
2023-02-23T22:06:46.316Z,95850.53
2023-02-23T22:09:19.168Z,95843.22
2023-02-23T22:11:52.084Z,95842.28
2023-02-23T22:14:25.076Z,95839.50
2023-02-23T22:16:58.804Z,95843.88
2023-02-23T22:19:33.366Z,95844.97
2023-02-23T22:22:06.211Z,95840.59
2023-02-23T22:24:39.100Z,95842.31
2023-02-23T22:27:12.068Z,95841.41
2023-02-23T22:29:45.593Z,95829.03
2023-02-23T22:32:21.807Z,95825.91
2023-02-23T22:34:56.458Z,95831.09
2023-02-23T22:37:32.248Z,95836.25
2023-02-23T22:40:12.228Z,95833.13
2023-02-23T22:42:48.378Z,95831.44
2023-02-23T22:45:21.846Z,95833.94
2023-02-23T22:47:55.547Z,95826.13
2023-02-23T22:50:30.122Z,95817.38
2023-02-23T22:53:03.133Z,95822.53
2023-02-23T22:55:36.025Z,95823.19
2023-02-23T22:58:10.398Z,95815.38
2023-02-23T23:01:01.965Z,95814.94
2023-02-23T23:03:37.755Z,95814.75
2023-02-23T23:06:16.873Z,95801.31
2023-02-23T23:08:56.511Z,95800.88
2023-02-23T23:11:30.008Z,95799.13
2023-02-23T23:14:06.986Z,95800.53
2023-02-23T23:16:48.005Z,95801.19
2023-02-23T23:19:24.408Z,95798.06
2023-02-23T23:22:00.529Z,95789.94
2023-02-23T23:24:33.594Z,95786.03
2023-02-23T23:27:08.229Z,95785.88
2023-02-23T23:29:45.746Z,95788.41
2023-02-23T23:32:21.241Z,95784.19
2023-02-23T23:34:57.746Z,95790.88
2023-02-23T23:37:32.267Z,95783.22
2023-02-23T23:40:14.653Z,95785.28
2023-02-23T23:42:48.121Z,95794.03
2023-02-23T23:45:24.233Z,95795.41
2023-02-23T23:47:57.441Z,95779.31
2023-02-23T23:50:30.401Z,95778.09
2023-02-23T23:53:05.743Z,95781.53
2023-02-23T23:55:38.650Z,95783.72
2023-02-23T23:58:11.729Z,95781.69
